Dudinka, Russia

1:09 PM KRAT on August 31, 2016 (GMT +0700)
Alykel | | Change Station

Elev 574 ft 69.31 °N, 87.33 °E | Updated 9 minutes ago

Light Rain Showers
Light Showers Rain Mist
55 °F
Feels Like 55 °F
N
11
Wind Variable Wind from East

Today
High -- | Low -- °F
--% Chance of Precip.
Yesterday
High -- | Low -- °F
Precip. -- in
Pressure 29.50 in
Visibility -9999.0 miles
Clouds Mostly Cloudy 900 ft
Dew Point 55 °F
Humidity 100%
Rainfall 0.00 in
Snow Depth Not available.
5:30 AM 8:57 PM
Waning Crescent, 1% visible
METAR UOOO 310600Z 08005MPS 3400 -SHRA BR BKN009CB 13/13 Q0999 R19/29//40 NOSIG RMK QFE734
Pressure 29.50 in
Visibility -9999.0 miles
Clouds Mostly Cloudy 900 ft
Dew Point 55 °F
Humidity 100%
Rainfall 0.00 in
Snow Depth Not available.
5:30 AM 8:57 PM
Waning Crescent, 1% visible
METAR UOOO 310600Z 08005MPS 3400 -SHRA BR BKN009CB 13/13 Q0999 R19/29//40 NOSIG RMK QFE734

10-Day Weather Forecast

×

Almanac

Astronomy

Aug. 31, 2016 Rise Set
Actual Time
Civil Twilight
Nautical Twilight
Astronomical Twilight
Moon
Length of Visible Light
Length of Day
Tomorrow will be .
, % of the Moon is Illuminated

Today's Extremes

Country Highs Country Lows

Community

WunderPhotos

Upload Photos

1,936,040 photos uploaded!

WunderBlog® & News

Nearby

Air Quality

  Air Quality AQ Index Pollutant
Not available.

Snow Depth

Station Depth Elevation

Earthquake Activity

City Distance Mag. Time & Date
Minimum magnitude displayed is 2.5.

Coastal Water Temperatures

Place Temperature

Stations

Nearby Weather Stations

Station Location Temp. Windchill Dew Point Humidity Wind Precip. Elev Updated Type